Time;durP1;ratioP1;P1;durP2;ratioP2;P2;SDS_P1;SDS_P2;PMS_P1;PMS_P2;Temp;Humidity;BMP_temperature;BMP_pressure;BME280_temperature;BME280_humidity;BME280_pressure;Samples;Min_cycle;Max_cycle;Signal;HPM_P1;HPM_P2
2021/01/20 00:00:05;;;;;;;56.90;30.55;;;;;;;;;;5092290;28;20411;-70
2021/01/20 00:02:31;;;;;;;53.17;30.25;;;;;;;;;;5093427;28;20028;-68
2021/01/20 00:04:57;;;;;;;90.20;44.03;;;;;;;;;;5093433;28;20012;-70
2021/01/20 00:07:23;;;;;;;96.80;50.30;;;;;;;;;;5093376;28;20103;-70
2021/01/20 00:09:49;;;;;;;62.95;34.85;;;;;;;;;;5093233;28;20356;-69
2021/01/20 00:12:15;;;;;;;54.85;29.80;;;;;;;;;;5092243;28;20123;-69
2021/01/20 00:14:42;;;;;;;59.08;32.90;;;;;;;;;;5092037;28;20020;-70
2021/01/20 00:17:08;;;;;;;50.40;28.33;;;;;;;;;;5092014;28;20012;-69
2021/01/20 00:19:34;;;;;;;62.38;32.80;;;;;;;;;;5092631;28;20039;-69
2021/01/20 00:22:00;;;;;;;56.65;32.28;;;;;;;;;;5092076;28;20032;-72
2021/01/20 00:24:26;;;;;;;76.78;41.90;;;;;;;;;;5092907;28;20031;-70
2021/01/20 00:26:52;;;;;;;56.92;30.30;;;;;;;;;;5092759;28;20043;-70
2021/01/20 00:29:18;;;;;;;509.55;191.43;;;;;;;;;;5093721;28;20046;-71
2021/01/20 00:31:44;;;;;;;65.78;32.78;;;;;;;;;;5091519;28;20040;-71
2021/01/20 00:34:10;;;;;;;58.47;31.17;;;;;;;;;;5093438;28;20020;-71
2021/01/20 00:36:36;;;;;;;53.25;29.08;;;;;;;;;;5091744;28;20457;-71
2021/01/20 00:39:03;;;;;;;52.88;30.48;;;;;;;;;;5091752;28;20111;-70
2021/01/20 00:41:29;;;;;;;54.10;31.27;;;;;;;;;;5093158;28;20455;-71
2021/01/20 00:43:55;;;;;;;52.53;27.38;;;;;;;;;;5092580;28;20118;-70
2021/01/20 00:46:21;;;;;;;102.72;49.85;;;;;;;;;;5096757;28;20028;-70
2021/01/20 00:48:47;;;;;;;85.88;41.33;;;;;;;;;;5097194;28;20024;-71
2021/01/20 00:51:14;;;;;;;78.30;40.05;;;;;;;;;;5096686;28;20361;-70
2021/01/20 00:53:40;;;;;;;71.05;37.10;;;;;;;;;;5096801;28;20020;-71
2021/01/20 00:56:06;;;;;;;64.15;35.92;;;;;;;;;;5097050;28;20023;-69
2021/01/20 00:58:33;;;;;;;67.32;35.30;;;;;;;;;;5096164;28;20346;-72
2021/01/20 01:00:59;;;;;;;62.05;33.95;;;;;;;;;;5094620;28;20122;-72
2021/01/20 01:03:25;;;;;;;44.40;26.00;;;;;;;;;;5095375;28;20483;-71
2021/01/20 01:05:51;;;;;;;49.08;27.13;;;;;;;;;;5096169;28;20453;-70
2021/01/20 01:08:17;;;;;;;57.78;32.25;;;;;;;;;;5096259;28;20016;-70
2021/01/20 01:10:43;;;;;;;47.22;27.52;;;;;;;;;;5095400;28;20441;-71
2021/01/20 01:13:09;;;;;;;46.95;27.88;;;;;;;;;;5094637;28;20032;-70
2021/01/20 01:15:35;;;;;;;48.83;28.55;;;;;;;;;;5094944;28;20028;-71
2021/01/20 01:18:01;;;;;;;45.65;27.08;;;;;;;;;;5095032;28;20020;-71
2021/01/20 01:20:28;;;;;;;48.92;27.15;;;;;;;;;;5095993;28;20020;-70
2021/01/20 01:22:57;;;;;;;53.33;27.73;;;;;;;;;;5096303;28;20077;-70
2021/01/20 01:25:23;;;;;;;46.38;27.13;;;;;;;;;;5094628;28;20028;-70
2021/01/20 01:27:49;;;;;;;51.95;29.27;;;;;;;;;;5094750;28;20024;-71
2021/01/20 01:30:15;;;;;;;46.17;26.45;;;;;;;;;;5096101;28;20024;-71
2021/01/20 01:32:41;;;;;;;58.42;34.78;;;;;;;;;;5094539;28;20071;-70
2021/01/20 01:35:07;;;;;;;49.45;27.45;;;;;;;;;;5095459;28;20016;-70
2021/01/20 01:37:33;;;;;;;51.28;28.27;;;;;;;;;;5095746;28;20020;-69
2021/01/20 01:40:00;;;;;;;48.28;28.38;;;;;;;;;;5094382;28;20024;-70
2021/01/20 01:42:26;;;;;;;47.08;26.13;;;;;;;;;;5094629;28;20027;-70
2021/01/20 01:44:52;;;;;;;58.13;32.20;;;;;;;;;;5095657;28;20035;-69
2021/01/20 01:47:19;;;;;;;46.75;26.75;;;;;;;;;;5096004;28;20016;-68
2021/01/20 01:49:45;;;;;;;45.25;26.17;;;;;;;;;;5094460;28;20024;-71
2021/01/20 01:52:11;;;;;;;48.97;25.58;;;;;;;;;;5094167;28;20106;-71
2021/01/20 01:54:38;;;;;;;49.17;27.63;;;;;;;;;;5093925;28;20461;-69
2021/01/20 01:57:05;;;;;;;47.78;25.05;;;;;;;;;;5095635;28;20472;-69
2021/01/20 01:59:31;;;;;;;64.35;33.97;;;;;;;;;;5095248;28;20368;-69
2021/01/20 02:01:57;;;;;;;54.08;27.33;;;;;;;;;;5094681;28;20059;-69
2021/01/20 02:04:23;;;;;;;46.50;25.80;;;;;;;;;;5095266;28;20020;-68
2021/01/20 02:06:53;;;;;;;49.95;26.80;;;;;;;;;;5094110;28;20028;-69
2021/01/20 02:09:20;;;;;;;46.03;26.58;;;;;;;;;;5094630;28;20373;-68
2021/01/20 02:12:03;;;;;;;42.38;22.83;;;;;;;;;;5095270;28;20081;-70
2021/01/20 02:14:45;;;;;;;48.00;25.83;;;;;;;;;;5077245;28;20020;-69
2021/01/20 02:17:17;;;;;;;41.88;24.80;;;;;;;;;;5094857;28;20027;-68
2021/01/20 02:19:55;;;;;;;49.25;27.83;;;;;;;;;;5095152;28;20026;-70
2021/01/20 02:22:30;;;;;;;42.97;24.90;;;;;;;;;;5094279;28;20364;-68
2021/01/20 02:25:12;;;;;;;43.08;25.85;;;;;;;;;;5094502;28;20373;-70
2021/01/20 02:28:06;;;;;;;39.05;21.92;;;;;;;;;;5095049;28;20108;-71
2021/01/20 02:30:34;;;;;;;43.83;24.20;;;;;;;;;;5093396;28;20039;-69
2021/01/20 02:33:01;;;;;;;37.20;22.58;;;;;;;;;;5094457;28;20101;-68
2021/01/20 02:35:28;;;;;;;39.53;23.52;;;;;;;;;;5094137;28;20020;-70
2021/01/20 02:37:54;;;;;;;34.85;21.25;;;;;;;;;;5092862;28;20031;-71
2021/01/20 02:40:20;;;;;;;37.30;22.05;;;;;;;;;;5093375;28;20055;-71
2021/01/20 02:42:47;;;;;;;34.15;20.27;;;;;;;;;;5094467;28;20102;-71
2021/01/20 02:45:14;;;;;;;40.03;23.58;;;;;;;;;;5094151;28;20020;-70
2021/01/20 02:47:41;;;;;;;36.47;22.87;;;;;;;;;;5093456;28;20016;-70
2021/01/20 02:50:08;;;;;;;38.00;22.38;;;;;;;;;;5093061;28;20020;-71
2021/01/20 02:52:41;;;;;;;34.10;21.02;;;;;;;;;;5092893;28;20032;-71
2021/01/20 02:55:09;;;;;;;46.53;24.27;;;;;;;;;;5093254;28;20027;-71
2021/01/20 02:57:35;;;;;;;48.85;27.25;;;;;;;;;;5094140;28;20052;-70
2021/01/20 03:00:02;;;;;;;40.03;22.40;;;;;;;;;;5092880;28;20020;-71
2021/01/20 03:02:29;;;;;;;45.65;23.02;;;;;;;;;;5094199;28;20536;-72
2021/01/20 03:04:57;;;;;;;51.95;26.33;;;;;;;;;;5092464;28;20427;-71
2021/01/20 03:07:24;;;;;;;56.72;27.63;;;;;;;;;;5092390;28;20107;-71
2021/01/20 03:09:51;;;;;;;37.95;21.10;;;;;;;;;;5093849;28;20511;-70
2021/01/20 03:12:17;;;;;;;28.75;18.13;;;;;;;;;;5092651;28;20028;-70
2021/01/20 03:14:44;;;;;;;30.00;18.25;;;;;;;;;;5094209;28;20016;-69
2021/01/20 03:17:11;;;;;;;127.45;45.40;;;;;;;;;;5093496;28;20322;-70
2021/01/20 03:19:37;;;;;;;134.63;48.42;;;;;;;;;;5092529;28;20016;-69
2021/01/20 03:22:03;;;;;;;42.67;20.50;;;;;;;;;;5092811;28;20027;-67
2021/01/20 03:24:29;;;;;;;55.10;24.92;;;;;;;;;;5093819;28;20395;-71
2021/01/20 03:26:55;;;;;;;33.38;18.75;;;;;;;;;;5092576;28;20020;-70
2021/01/20 03:29:21;;;;;;;34.78;19.58;;;;;;;;;;5092802;28;20070;-70
2021/01/20 03:31:47;;;;;;;33.47;18.73;;;;;;;;;;5094280;28;20045;-73
2021/01/20 03:34:13;;;;;;;30.23;17.40;;;;;;;;;;5093588;28;20020;-71
2021/01/20 03:36:39;;;;;;;31.52;16.63;;;;;;;;;;5092776;28;20048;-71
2021/01/20 03:39:05;;;;;;;25.55;15.57;;;;;;;;;;5093308;28;20055;-70
2021/01/20 03:41:32;;;;;;;29.75;17.13;;;;;;;;;;5094098;28;20024;-70
2021/01/20 03:43:58;;;;;;;26.65;16.27;;;;;;;;;;5092843;28;20020;-70
2021/01/20 03:46:24;;;;;;;25.45;15.07;;;;;;;;;;5092100;28;20449;-70
2021/01/20 03:48:50;;;;;;;22.83;14.65;;;;;;;;;;5092795;28;20024;-71
2021/01/20 03:51:16;;;;;;;24.80;16.60;;;;;;;;;;5093735;28;20032;-69
2021/01/20 03:53:42;;;;;;;24.75;15.95;;;;;;;;;;5092659;28;20024;-69
2021/01/20 03:56:08;;;;;;;22.45;14.20;;;;;;;;;;5094905;28;20040;-69
2021/01/20 03:58:34;;;;;;;25.77;15.50;;;;;;;;;;5094450;28;20023;-70
2021/01/20 04:01:00;;;;;;;25.08;15.20;;;;;;;;;;5092931;28;20027;-71
2021/01/20 04:03:26;;;;;;;25.17;15.38;;;;;;;;;;5094680;28;20067;-70
2021/01/20 04:05:53;;;;;;;26.52;16.65;;;;;;;;;;5094216;28;20085;-70
2021/01/20 04:08:19;;;;;;;29.60;17.15;;;;;;;;;;5093833;28;20122;-69
2021/01/20 04:10:45;;;;;;;27.95;15.10;;;;;;;;;;5093624;28;20369;-68
2021/01/20 04:13:11;;;;;;;22.95;14.68;;;;;;;;;;5092788;28;20028;-69
2021/01/20 04:15:37;;;;;;;26.48;14.95;;;;;;;;;;5093838;28;20380;-68
2021/01/20 04:18:03;;;;;;;29.27;17.30;;;;;;;;;;5094085;28;20095;-70
2021/01/20 04:20:29;;;;;;;26.88;15.35;;;;;;;;;;5096048;28;20035;-69
2021/01/20 04:22:55;;;;;;;25.63;15.98;;;;;;;;;;5098057;28;20111;-69
2021/01/20 04:25:21;;;;;;;23.42;15.60;;;;;;;;;;5096181;28;20078;-69
2021/01/20 04:27:47;;;;;;;21.70;13.93;;;;;;;;;;5096375;28;20024;-71
2021/01/20 04:30:14;;;;;;;23.92;14.30;;;;;;;;;;5096386;28;20024;-70
2021/01/20 04:32:40;;;;;;;25.73;14.90;;;;;;;;;;5095484;28;20067;-70
2021/01/20 04:35:06;;;;;;;23.02;14.77;;;;;;;;;;5095584;28;20464;-71
2021/01/20 04:37:32;;;;;;;20.83;14.40;;;;;;;;;;5095690;28;20533;-68
2021/01/20 04:39:59;;;;;;;21.10;13.98;;;;;;;;;;5097128;28;20016;-70
2021/01/20 04:42:25;;;;;;;19.27;12.73;;;;;;;;;;5095185;28;20032;-70
2021/01/20 04:44:51;;;;;;;20.90;13.88;;;;;;;;;;5095748;28;20520;-69
2021/01/20 04:47:17;;;;;;;19.63;11.65;;;;;;;;;;5096835;28;20024;-68
2021/01/20 04:49:45;;;;;;;20.17;12.27;;;;;;;;;;5094931;28;20369;-69
2021/01/20 04:52:16;;;;;;;26.15;15.73;;;;;;;;;;5095481;28;20028;-69
2021/01/20 04:54:43;;;;;;;21.23;13.43;;;;;;;;;;5096380;28;20360;-70
2021/01/20 04:57:09;;;;;;;21.70;14.82;;;;;;;;;;5096213;28;20078;-69
2021/01/20 04:59:36;;;;;;;20.77;12.27;;;;;;;;;;5094931;28;20349;-68
2021/01/20 05:02:02;;;;;;;20.77;11.88;;;;;;;;;;5095013;28;20036;-69
2021/01/20 05:04:28;;;;;;;21.92;12.98;;;;;;;;;;5095090;28;20052;-68
2021/01/20 05:06:55;;;;;;;24.85;13.50;;;;;;;;;;5094826;28;20020;-71
2021/01/20 05:09:21;;;;;;;24.08;14.77;;;;;;;;;;5093294;28;20023;-72
2021/01/20 05:11:47;;;;;;;27.50;14.57;;;;;;;;;;5092625;28;21483;-71
2021/01/20 05:14:13;;;;;;;28.25;15.88;;;;;;;;;;5093132;28;20457;-70
2021/01/20 05:16:40;;;;;;;23.85;13.65;;;;;;;;;;5093259;28;20127;-71
2021/01/20 05:19:06;;;;;;;32.22;18.55;;;;;;;;;;5094342;28;20464;-68
2021/01/20 05:21:32;;;;;;;41.15;20.08;;;;;;;;;;5094643;28;20075;-68
2021/01/20 05:24:22;;;;;;;41.15;18.20;;;;;;;;;;5093391;28;20020;-70
2021/01/20 05:26:48;;;;;;;44.75;23.13;;;;;;;;;;5095330;28;20107;-69
2021/01/20 05:29:15;;;;;;;53.63;26.85;;;;;;;;;;5096271;28;20488;-68
2021/01/20 05:31:41;;;;;;;51.28;25.40;;;;;;;;;;5095195;28;20127;-68
2021/01/20 05:34:23;;;;;;;38.28;23.35;;;;;;;;;;5096139;28;20481;-68
2021/01/20 05:37:03;;;;;;;33.50;20.02;;;;;;;;;;5094717;28;20480;-68
2021/01/20 05:39:30;;;;;;;28.98;16.58;;;;;;;;;;5095733;28;20039;-70
2021/01/20 05:41:59;;;;;;;32.13;17.48;;;;;;;;;;5094642;28;20111;-69
2021/01/20 05:44:25;;;;;;;28.23;16.15;;;;;;;;;;5095710;28;20027;-69
2021/01/20 05:46:52;;;;;;;30.10;18.42;;;;;;;;;;5094223;28;20008;-69
2021/01/20 05:49:28;;;;;;;42.97;24.65;;;;;;;;;;5094500;28;20136;-70
2021/01/20 05:51:55;;;;;;;26.67;18.37;;;;;;;;;;5094475;28;20024;-69
2021/01/20 05:54:31;;;;;;;27.83;16.50;;;;;;;;;;5095961;28;20020;-68
2021/01/20 05:57:10;;;;;;;33.70;19.75;;;;;;;;;;5095618;28;20705;-70
2021/01/20 05:59:36;;;;;;;36.38;19.17;;;;;;;;;;5095071;28;20020;-68
2021/01/20 06:02:03;;;;;;;51.35;26.60;;;;;;;;;;5094311;28;20020;-70
2021/01/20 06:04:30;;;;;;;44.80;21.33;;;;;;;;;;5094246;28;20022;-70
2021/01/20 06:06:57;;;;;;;49.97;25.77;;;;;;;;;;5095127;28;20026;-70
2021/01/20 06:09:25;;;;;;;80.28;55.53;;;;;;;;;;5095265;28;20027;-68
2021/01/20 06:11:51;;;;;;;66.40;39.70;;;;;;;;;;5095045;28;20112;-70
2021/01/20 06:14:18;;;;;;;66.68;42.15;;;;;;;;;;5094994;28;20024;-69
2021/01/20 06:16:45;;;;;;;63.72;37.95;;;;;;;;;;5095248;28;20020;-71
2021/01/20 06:19:13;;;;;;;48.70;24.45;;;;;;;;;;5094487;28;20019;-71
2021/01/20 06:21:40;;;;;;;69.47;36.55;;;;;;;;;;5093638;28;20032;-71
2021/01/20 06:24:15;;;;;;;73.18;43.10;;;;;;;;;;5093557;28;20047;-71
2021/01/20 06:26:46;;;;;;;46.58;28.35;;;;;;;;;;5093553;28;20476;-68
2021/01/20 06:29:13;;;;;;;37.83;20.77;;;;;;;;;;5094823;28;20012;-69
2021/01/20 06:31:42;;;;;;;45.08;27.38;;;;;;;;;;5093183;28;20040;-68
2021/01/20 06:34:08;;;;;;;35.10;20.58;;;;;;;;;;5094602;28;20448;-66
2021/01/20 06:36:35;;;;;;;36.72;19.50;;;;;;;;;;5094868;28;20059;-66
2021/01/20 06:39:21;;;;;;;39.42;18.88;;;;;;;;;;5093415;28;20366;-70
2021/01/20 06:41:47;;;;;;;32.92;19.05;;;;;;;;;;5093296;28;20388;-66
2021/01/20 06:44:16;;;;;;;39.05;21.02;;;;;;;;;;5093463;28;20161;-64
2021/01/20 06:46:57;;;;;;;73.63;32.80;;;;;;;;;;5094893;28;20330;-66
2021/01/20 06:49:28;;;;;;;54.63;26.58;;;;;;;;;;5094823;28;20527;-68
2021/01/20 06:52:10;;;;;;;116.70;55.45;;;;;;;;;;5093253;28;20032;-69
2021/01/20 06:54:38;;;;;;;112.90;57.40;;;;;;;;;;5094500;28;20014;-65
2021/01/20 06:57:04;;;;;;;;;;;;;;;;;;5094763;28;20020;-67
2021/01/20 06:59:31;;;;;;;117.07;64.57;;;;;;;;;;5095134;28;20241;-64
2021/01/20 07:02:05;;;;;;;55.65;33.70;;;;;;;;;;5094216;28;20115;-65
2021/01/20 07:04:40;;;;;;;74.40;39.05;;;;;;;;;;5094673;28;20016;-65
2021/01/20 07:07:09;;;;;;;54.10;32.20;;;;;;;;;;5094216;28;20467;-68
2021/01/20 07:09:51;;;;;;;45.15;29.30;;;;;;;;;;5092516;28;20468;-67
2021/01/20 07:12:21;;;;;;;48.78;29.67;;;;;;;;;;5093017;28;20024;-67
2021/01/20 07:14:49;;;;;;;65.53;40.80;;;;;;;;;;5094261;28;20352;-67
2021/01/20 07:17:15;;;;;;;86.28;54.28;;;;;;;;;;5092697;28;20173;-72
2021/01/20 07:19:41;;;;;;;103.70;58.17;;;;;;;;;;5093844;28;20089;-71
2021/01/20 07:22:07;;;;;;;101.70;51.50;;;;;;;;;;5092636;28;20031;-71
2021/01/20 07:24:34;;;;;;;81.25;41.78;;;;;;;;;;5092570;28;20020;-72
2021/01/20 07:27:04;;;;;;;59.45;33.63;;;;;;;;;;5094024;28;20036;-68
2021/01/20 07:29:32;;;;;;;53.90;27.73;;;;;;;;;;5092164;28;20020;-69
2021/01/20 07:31:59;;;;;;;53.40;27.75;;;;;;;;;;5093057;28;20048;-70
2021/01/20 07:34:38;;;;;;;47.95;24.52;;;;;;;;;;5094015;28;20066;-69
2021/01/20 07:37:07;;;;;;;48.78;27.25;;;;;;;;;;5092365;28;20031;-70
2021/01/20 07:39:33;;;;;;;32.60;19.10;;;;;;;;;;5092641;28;20077;-72
2021/01/20 07:41:59;;;;;;;26.13;15.88;;;;;;;;;;5092418;28;20030;-68
2021/01/20 07:44:26;;;;;;;27.33;15.65;;;;;;;;;;5092828;28;20530;-66
2021/01/20 07:46:59;;;;;;;23.75;14.60;;;;;;;;;;5092234;28;20020;-65
2021/01/20 07:49:25;;;;;;;37.45;25.02;;;;;;;;;;5092425;28;20012;-64
2021/01/20 07:52:08;;;;;;;32.70;19.63;;;;;;;;;;5092163;28;20039;-66
2021/01/20 07:54:37;;;;;;;39.97;24.85;;;;;;;;;;5094081;28;20061;-66
2021/01/20 07:57:04;;;;;;;38.83;21.38;;;;;;;;;;5096262;28;20091;-64
2021/01/20 07:59:32;;;;;;;42.38;23.00;;;;;;;;;;5096125;28;20020;-65
2021/01/20 08:01:58;;;;;;;;;;;;;;;;;;5097014;28;20073;-65
2021/01/20 08:04:27;;;;;;;33.55;19.63;;;;;;;;;;5096067;28;19900;-68
2021/01/20 08:06:53;;;;;;;35.47;20.42;;;;;;;;;;5094787;28;20062;-65
2021/01/20 08:09:21;;;;;;;33.88;19.50;;;;;;;;;;5096153;28;20029;-66
2021/01/20 08:11:48;;;;;;;36.78;19.65;;;;;;;;;;5093621;28;20024;-65
2021/01/20 08:14:14;;;;;;;41.17;22.80;;;;;;;;;;5095926;28;20019;-65
2021/01/20 08:16:40;;;;;;;49.00;25.80;;;;;;;;;;5094902;28;20056;-67
2021/01/20 08:19:07;;;;;;;52.80;26.08;;;;;;;;;;5092820;28;20064;-67
2021/01/20 08:21:33;;;;;;;56.17;25.38;;;;;;;;;;5095686;28;20016;-68
2021/01/20 08:24:05;;;;;;;65.05;34.10;;;;;;;;;;5096091;28;20154;-66
2021/01/20 08:26:32;;;;;;;50.22;25.83;;;;;;;;;;5092133;28;20012;-68
2021/01/20 08:29:02;;;;;;;59.10;27.02;;;;;;;;;;5096050;28;20024;-70
2021/01/20 08:31:28;;;;;;;80.93;30.60;;;;;;;;;;5093154;28;20064;-67
2021/01/20 08:34:32;;;;;;;100.80;39.05;;;;;;;;;;5094221;28;20020;-66
2021/01/20 08:37:03;;;;;;;49.85;24.00;;;;;;;;;;5072614;28;20028;-70
2021/01/20 08:39:31;;;;;;;67.80;34.70;;;;;;;;;;5053684;28;20021;-70
2021/01/20 08:42:12;;;;;;;80.13;39.17;;;;;;;;;;5073758;28;20031;-67
2021/01/20 08:44:38;;;;;;;55.60;26.55;;;;;;;;;;5094847;28;20087;-66
2021/01/20 08:47:05;;;;;;;66.18;32.63;;;;;;;;;;5093759;28;20452;-67
2021/01/20 08:49:31;;;;;;;60.38;28.67;;;;;;;;;;5096435;28;20031;-66
2021/01/20 08:51:57;;;;;;;83.30;37.17;;;;;;;;;;5096353;28;20470;-66
2021/01/20 08:54:26;;;;;;;72.80;34.80;;;;;;;;;;5093370;28;20037;-67
2021/01/20 08:56:53;;;;;;;55.55;28.95;;;;;;;;;;5087848;28;20016;-67
2021/01/20 08:59:19;;;;;;;43.80;27.25;;;;;;;;;;5076136;28;20017;-66
2021/01/20 09:01:45;;;;;;;65.30;32.25;;;;;;;;;;5075810;28;20369;-66
2021/01/20 09:04:11;;;;;;;61.80;27.73;;;;;;;;;;5075708;28;20016;-67
2021/01/20 09:06:37;;;;;;;46.45;26.83;;;;;;;;;;5090072;28;20020;-67
2021/01/20 09:09:04;;;;;;;57.08;26.77;;;;;;;;;;5095844;28;20020;-64
2021/01/20 09:11:30;;;;;;;39.13;21.73;;;;;;;;;;5096462;28;20028;-68
2021/01/20 09:13:56;;;;;;;33.05;20.42;;;;;;;;;;5095129;28;20532;-64
2021/01/20 09:16:26;;;;;;;55.33;27.58;;;;;;;;;;5096001;28;20091;-66
2021/01/20 09:18:52;;;;;;;27.88;17.17;;;;;;;;;;5096018;28;20019;-66
2021/01/20 09:21:18;;;;;;;27.45;15.23;;;;;;;;;;5095894;28;20098;-66
2021/01/20 09:23:44;;;;;;;42.67;22.15;;;;;;;;;;5095638;28;20024;-65
2021/01/20 09:26:10;;;;;;;41.35;23.40;;;;;;;;;;5096099;28;20099;-64
2021/01/20 09:28:36;;;;;;;57.22;29.33;;;;;;;;;;5096618;28;20456;-65
2021/01/20 09:31:03;;;;;;;58.42;30.52;;;;;;;;;;5095270;28;20048;-65
2021/01/20 09:33:29;;;;;;;48.63;26.77;;;;;;;;;;5096034;28;20483;-66
2021/01/20 09:35:55;;;;;;;53.15;28.35;;;;;;;;;;5095444;28;20107;-66
2021/01/20 09:38:21;;;;;;;66.13;34.63;;;;;;;;;;5095754;28;20023;-64
2021/01/20 09:40:48;;;;;;;62.20;30.13;;;;;;;;;;5096620;28;20344;-66
2021/01/20 09:43:16;;;;;;;69.03;33.50;;;;;;;;;;5095266;28;20027;-65
2021/01/20 09:45:44;;;;;;;66.05;33.33;;;;;;;;;;5095264;28;20012;-66
2021/01/20 09:48:10;;;;;;;45.08;22.45;;;;;;;;;;5095599;28;20019;-67
2021/01/20 09:50:37;;;;;;;44.83;24.42;;;;;;;;;;5095696;28;20026;-64
2021/01/20 09:53:04;;;;;;;34.97;18.00;;;;;;;;;;5094818;28;20020;-66
2021/01/20 09:55:30;;;;;;;39.40;21.25;;;;;;;;;;5095237;28;20027;-67
2021/01/20 09:57:56;;;;;;;41.25;21.63;;;;;;;;;;5095261;28;20051;-66
2021/01/20 10:00:23;;;;;;;44.58;26.35;;;;;;;;;;5095439;28;20015;-66
2021/01/20 10:02:49;;;;;;;38.90;22.27;;;;;;;;;;5095516;28;20055;-65
2021/01/20 10:05:15;;;;;;;24.33;13.90;;;;;;;;;;5094829;28;20019;-65
2021/01/20 10:07:41;;;;;;;29.80;16.88;;;;;;;;;;5095040;28;20016;-64
2021/01/20 10:10:09;;;;;;;28.27;15.57;;;;;;;;;;5095267;28;20023;-66
2021/01/20 10:12:35;;;;;;;25.55;15.30;;;;;;;;;;5094975;28;20020;-67
2021/01/20 10:15:01;;;;;;;28.45;15.30;;;;;;;;;;5093857;28;20396;-67
2021/01/20 10:17:28;;;;;;;30.45;15.73;;;;;;;;;;5095391;28;20016;-66
2021/01/20 10:19:54;;;;;;;30.23;16.83;;;;;;;;;;5094828;28;20091;-69
2021/01/20 10:22:20;;;;;;;40.08;21.83;;;;;;;;;;5094931;28;20020;-67
2021/01/20 10:24:46;;;;;;;47.13;25.05;;;;;;;;;;5093896;28;20020;-66
2021/01/20 10:27:12;;;;;;;37.22;21.95;;;;;;;;;;5094387;28;20372;-65
2021/01/20 10:29:38;;;;;;;36.45;20.55;;;;;;;;;;5094923;28;20403;-66
2021/01/20 10:32:05;;;;;;;32.25;17.52;;;;;;;;;;5094466;28;20089;-66
2021/01/20 10:34:31;;;;;;;32.97;19.38;;;;;;;;;;5095035;28;20012;-67
2021/01/20 10:36:57;;;;;;;38.17;18.23;;;;;;;;;;5095072;28;20098;-67
2021/01/20 10:39:24;;;;;;;124.28;55.00;;;;;;;;;;5094405;28;20024;-65
2021/01/20 10:41:50;;;;;;;54.63;25.48;;;;;;;;;;5094184;28;20023;-65
2021/01/20 10:44:16;;;;;;;55.67;27.27;;;;;;;;;;5093357;28;20028;-69
2021/01/20 10:46:42;;;;;;;49.75;28.75;;;;;;;;;;5092888;28;20012;-70
2021/01/20 10:49:08;;;;;;;46.75;23.50;;;;;;;;;;5093167;28;20040;-67
2021/01/20 10:51:35;;;;;;;38.40;22.65;;;;;;;;;;5094440;28;20115;-74
2021/01/20 10:54:01;;;;;;;38.05;21.88;;;;;;;;;;5093514;28;20024;-73
2021/01/20 10:56:28;;;;;;;45.38;26.05;;;;;;;;;;5094332;28;20016;-73
2021/01/20 10:58:54;;;;;;;38.45;23.65;;;;;;;;;;5095639;28;20024;-72
2021/01/20 11:01:20;;;;;;;27.35;17.35;;;;;;;;;;5108577;28;20516;-72
2021/01/20 11:03:47;;;;;;;34.20;18.40;;;;;;;;;;5094009;28;20026;-74
2021/01/20 11:06:13;;;;;;;25.65;15.40;;;;;;;;;;5095220;28;20016;-71
2021/01/20 11:08:39;;;;;;;37.15;19.38;;;;;;;;;;5093537;28;20074;-74
2021/01/20 11:11:11;;;;;;;47.08;22.83;;;;;;;;;;5093862;28;20342;-70
2021/01/20 11:13:38;;;;;;;24.25;15.43;;;;;;;;;;5095981;28;20458;-71
2021/01/20 11:16:04;;;;;;;32.75;16.02;;;;;;;;;;5096289;28;20012;-70
2021/01/20 11:18:32;;;;;;;37.08;21.67;;;;;;;;;;5092493;28;20027;-70
2021/01/20 11:20:59;;;;;;;45.58;23.23;;;;;;;;;;5092185;28;20089;-72
2021/01/20 11:23:35;;;;;;;47.17;24.90;;;;;;;;;;5092151;28;20043;-72
2021/01/20 11:26:01;;;;;;;37.85;22.60;;;;;;;;;;5087654;28;20361;-71
2021/01/20 11:28:27;;;;;;;42.42;24.73;;;;;;;;;;5090604;28;20024;-69
2021/01/20 11:30:55;;;;;;;33.13;20.77;;;;;;;;;;5090867;28;20040;-81
2021/01/20 11:33:21;;;;;;;19.55;12.98;;;;;;;;;;5092648;28;20015;-71
2021/01/20 11:35:47;;;;;;;23.88;13.40;;;;;;;;;;5092161;28;20016;-72
2021/01/20 11:38:13;;;;;;;33.15;20.98;;;;;;;;;;5091703;28;20453;-70
2021/01/20 11:40:39;;;;;;;33.33;20.98;;;;;;;;;;5090800;28;20028;-71
2021/01/20 11:43:06;;;;;;;22.08;12.63;;;;;;;;;;5092004;28;20082;-70
2021/01/20 11:45:33;;;;;;;20.45;12.85;;;;;;;;;;5091067;28;20016;-71
2021/01/20 11:48:00;;;;;;;20.35;11.20;;;;;;;;;;5092438;28;20066;-71
2021/01/20 11:50:26;;;;;;;17.20;10.50;;;;;;;;;;5088298;28;20044;-73
2021/01/20 11:52:53;;;;;;;18.30;10.77;;;;;;;;;;5092091;28;20024;-70
2021/01/20 11:55:20;;;;;;;22.88;13.70;;;;;;;;;;5093538;28;20016;-73
2021/01/20 11:57:46;;;;;;;31.73;18.48;;;;;;;;;;5092469;28;20021;-72
2021/01/20 12:00:12;;;;;;;34.95;18.83;;;;;;;;;;5092268;28;20028;-72
2021/01/20 12:02:39;;;;;;;33.00;17.48;;;;;;;;;;5092151;28;20098;-70
2021/01/20 12:05:09;;;;;;;46.03;23.45;;;;;;;;;;5091471;28;20457;-71
2021/01/20 12:07:35;;;;;;;37.88;22.60;;;;;;;;;;5090255;28;20024;-68
2021/01/20 12:10:01;;;;;;;39.07;24.87;;;;;;;;;;5089670;28;20024;-68
2021/01/20 12:12:28;;;;;;;36.20;27.60;;;;;;;;;;5090492;28;20040;-65
2021/01/20 12:14:54;;;;;;;39.35;25.52;;;;;;;;;;5091667;28;20027;-68
2021/01/20 12:17:20;;;;;;;41.70;25.77;;;;;;;;;;5091536;28;20012;-70
2021/01/20 12:19:46;;;;;;;33.63;21.23;;;;;;;;;;5091800;28;20027;-74
2021/01/20 12:22:13;;;;;;;32.08;19.90;;;;;;;;;;5091428;28;20020;-75
2021/01/20 12:24:39;;;;;;;41.97;23.30;;;;;;;;;;5089891;28;20020;-71
2021/01/20 12:27:05;;;;;;;58.42;32.95;;;;;;;;;;5089689;28;20035;-71
2021/01/20 12:29:31;;;;;;;61.22;30.08;;;;;;;;;;5089550;28;20043;-70
2021/01/20 12:31:57;;;;;;;53.25;27.15;;;;;;;;;;5090175;28;20104;-71
2021/01/20 12:34:24;;;;;;;34.60;19.38;;;;;;;;;;5089079;28;20012;-70
2021/01/20 12:36:50;;;;;;;27.10;17.73;;;;;;;;;;5090876;28;20519;-67
2021/01/20 12:39:16;;;;;;;28.23;16.65;;;;;;;;;;5103726;28;20468;-71
2021/01/20 12:41:45;;;;;;;30.60;16.60;;;;;;;;;;5093185;28;20016;-76
2021/01/20 12:44:11;;;;;;;25.00;13.80;;;;;;;;;;5094143;28;20061;-71
2021/01/20 12:46:42;;;;;;;17.13;11.95;;;;;;;;;;5093254;28;20459;-76
2021/01/20 12:49:09;;;;;;;23.88;14.38;;;;;;;;;;5093284;28;20016;-74
2021/01/20 12:51:38;;;;;;;28.33;14.10;;;;;;;;;;5093119;28;20028;-72
2021/01/20 12:54:04;;;;;;;23.05;13.30;;;;;;;;;;5092558;28;20016;-67
2021/01/20 12:56:30;;;;;;;25.65;14.88;;;;;;;;;;5093784;28;20016;-72
2021/01/20 12:58:57;;;;;;;20.85;11.15;;;;;;;;;;5091527;28;20031;-72
2021/01/20 13:01:23;;;;;;;31.10;16.67;;;;;;;;;;5093123;28;20369;-71
2021/01/20 13:03:49;;;;;;;44.13;25.85;;;;;;;;;;5094321;28;20562;-70
2021/01/20 13:06:15;;;;;;;35.85;20.52;;;;;;;;;;5091962;28;20016;-71
2021/01/20 13:08:42;;;;;;;44.42;23.15;;;;;;;;;;5094464;28;20091;-74
2021/01/20 13:11:08;;;;;;;48.53;30.73;;;;;;;;;;5093329;28;20012;-77
2021/01/20 13:13:34;;;;;;;54.95;31.00;;;;;;;;;;5093078;28;20020;-74
2021/01/20 13:16:01;;;;;;;45.87;28.27;;;;;;;;;;5093064;28;20065;-74
2021/01/20 13:18:27;;;;;;;35.75;24.17;;;;;;;;;;5093653;28;20276;-74
2021/01/20 13:20:53;;;;;;;48.17;31.23;;;;;;;;;;5092437;28;20020;-70
2021/01/20 13:23:19;;;;;;;73.20;43.05;;;;;;;;;;5094719;28;20016;-71
2021/01/20 13:25:47;;;;;;;106.68;56.50;;;;;;;;;;5095371;28;20050;-79
2021/01/20 13:28:14;;;;;;;118.30;63.15;;;;;;;;;;5093868;28;20099;-70
2021/01/20 13:30:40;;;;;;;52.15;31.55;;;;;;;;;;5094142;28;21694;-68
2021/01/20 13:33:06;;;;;;;65.07;40.22;;;;;;;;;;5094227;28;20028;-72
2021/01/20 13:35:32;;;;;;;54.75;32.10;;;;;;;;;;5081053;28;20031;-69
2021/01/20 13:37:58;;;;;;;45.03;26.10;;;;;;;;;;5090430;28;20133;-70
2021/01/20 13:40:25;;;;;;;64.22;33.70;;;;;;;;;;5083829;28;20016;-65
2021/01/20 13:42:52;;;;;;;66.32;33.60;;;;;;;;;;5088524;28;20089;-65
2021/01/20 13:45:21;;;;;;;37.00;21.58;;;;;;;;;;5072498;28;20031;-68
2021/01/20 13:47:47;;;;;;;40.83;22.77;;;;;;;;;;5090153;28;20665;-70
2021/01/20 13:50:14;;;;;;;34.95;22.10;;;;;;;;;;5094125;28;20020;-66
2021/01/20 13:52:40;;;;;;;41.80;26.40;;;;;;;;;;5093101;28;20369;-68
2021/01/20 13:55:06;;;;;;;59.08;35.15;;;;;;;;;;5090530;28;20054;-66
2021/01/20 13:57:32;;;;;;;57.70;39.45;;;;;;;;;;5091655;28;20027;-68
2021/01/20 13:59:58;;;;;;;48.67;33.20;;;;;;;;;;5091663;28;20016;-69
2021/01/20 14:02:25;;;;;;;38.08;24.15;;;;;;;;;;5090684;28;20025;-71
2021/01/20 14:04:51;;;;;;;50.25;26.25;;;;;;;;;;5091662;28;20020;-70
2021/01/20 14:07:17;;;;;;;50.10;29.10;;;;;;;;;;5092859;28;20521;-69
2021/01/20 14:09:43;;;;;;;42.53;23.13;;;;;;;;;;5092013;28;20020;-69
2021/01/20 14:12:09;;;;;;;42.75;24.00;;;;;;;;;;5092965;28;20479;-69
2021/01/20 14:14:36;;;;;;;42.40;23.73;;;;;;;;;;5093032;28;20016;-69
2021/01/20 14:17:03;;;;;;;40.05;22.08;;;;;;;;;;5092325;28;20093;-70